EGEO/OBN METAR and TAF weather

Enter ICAO airport designator
Station Type Date Time Source
EGEO METAR 2020/08/14 15:50 UTC NOAA

EGEO 141550Z 28010KT 9999 FEW031 20/17 Q1016


Station Type Date Time Source
EGEO Decoded METAR 2020/08/14 15:50 UTC NOAA

Station name not available
Aug 14, 2020 - 11:50 AM EDT / 2020.08.14 1550 UTC
Wind: from the W (280 degrees) at 12 MPH (10 KT):0
Visibility: greater than 7 mile(s):0
Sky conditions: mostly clear
Temperature: 68 F (20 C)
Dew Point: 62 F (17 C)
Relative Humidity: 82%
Pressure (altimeter): 30.00 in. Hg (1016 hPa)
ob: EGEO 141550Z 28010KT 9999 FEW031 20/17 Q1016
cycle: 16

Station Type Date Time Source
EGEO TAF UTC NOAA

Error!

Example: see airport list